Terminal Aerodrome Forecast
Issued by NWS

Home | Current Version | Previous Version | Text Only | Print | Product List | Glossary Off
Versions: 1 2 3 4 5 6 7 8 9 10 11 12 13 14 15

997
FTUS43 KICT 191728
TAFSLN
TAF
KSLN 191728Z 1918/2018 18013KT P6SM FEW250
     FM200500 17014G20KT P6SM FEW250 WS020/19045KT
     FM201300 18015G23KT P6SM SCT200
     FM201700 18025G34KT P6SM SCT150=

USA.gov is the U.S. government's official web portal to all federal, state and local government web resources and services.